sensor_id;sensor_type;location;lat;lon;timestamp;P1;durP1;ratioP1;P2;durP2;ratioP2
44486;SDS011;30191;50.908;6.962;2022-10-26T00:01:26;4.55;;;1.60;;
44486;SDS011;30191;50.908;6.962;2022-10-26T00:03:53;5.45;;;1.20;;
44486;SDS011;30191;50.908;6.962;2022-10-26T00:06:20;3.42;;;1.02;;
44486;SDS011;30191;50.908;6.962;2022-10-26T00:08:49;4.43;;;1.38;;
44486;SDS011;30191;50.908;6.962;2022-10-26T00:11:16;5.30;;;1.10;;
44486;SDS011;30191;50.908;6.962;2022-10-26T00:13:43;8.30;;;1.33;;
44486;SDS011;30191;50.908;6.962;2022-10-26T00:16:10;3.80;;;1.05;;
44486;SDS011;30191;50.908;6.962;2022-10-26T00:18:38;4.72;;;1.13;;
44486;SDS011;30191;50.908;6.962;2022-10-26T00:21:04;4.53;;;1.30;;
44486;SDS011;30191;50.908;6.962;2022-10-26T00:23:31;6.95;;;1.15;;
44486;SDS011;30191;50.908;6.962;2022-10-26T00:25:57;4.60;;;1.10;;
44486;SDS011;30191;50.908;6.962;2022-10-26T00:28:23;4.78;;;0.90;;
44486;SDS011;30191;50.908;6.962;2022-10-26T00:30:49;3.28;;;1.30;;
44486;SDS011;30191;50.908;6.962;2022-10-26T00:33:15;5.82;;;1.42;;
44486;SDS011;30191;50.908;6.962;2022-10-26T00:35:41;5.80;;;0.80;;
44486;SDS011;30191;50.908;6.962;2022-10-26T00:38:07;3.13;;;1.00;;
44486;SDS011;30191;50.908;6.962;2022-10-26T00:40:33;4.38;;;1.13;;
44486;SDS011;30191;50.908;6.962;2022-10-26T00:42:59;6.55;;;1.20;;
44486;SDS011;30191;50.908;6.962;2022-10-26T00:45:28;4.95;;;1.10;;
44486;SDS011;30191;50.908;6.962;2022-10-26T00:48:02;2.95;;;1.00;;
44486;SDS011;30191;50.908;6.962;2022-10-26T00:50:32;4.00;;;1.10;;
44486;SDS011;30191;50.908;6.962;2022-10-26T00:53:02;3.88;;;1.10;;
44486;SDS011;30191;50.908;6.962;2022-10-26T00:55:31;4.00;;;1.15;;
44486;SDS011;30191;50.908;6.962;2022-10-26T00:58:01;2.55;;;1.02;;
44486;SDS011;30191;50.908;6.962;2022-10-26T01:00:29;5.65;;;1.02;;
44486;SDS011;30191;50.908;6.962;2022-10-26T01:02:56;3.03;;;0.90;;
44486;SDS011;30191;50.908;6.962;2022-10-26T01:05:24;7.47;;;1.13;;
44486;SDS011;30191;50.908;6.962;2022-10-26T01:07:51;4.75;;;1.10;;
44486;SDS011;30191;50.908;6.962;2022-10-26T01:10:18;5.00;;;1.15;;
44486;SDS011;30191;50.908;6.962;2022-10-26T01:12:44;4.22;;;1.02;;
44486;SDS011;30191;50.908;6.962;2022-10-26T01:15:11;3.70;;;0.98;;
44486;SDS011;30191;50.908;6.962;2022-10-26T01:20:30;2.13;;;0.90;;
44486;SDS011;30191;50.908;6.962;2022-10-26T01:29:10;3.28;;;1.25;;
44486;SDS011;30191;50.908;6.962;2022-10-26T01:31:50;7.57;;;1.10;;
44486;SDS011;30191;50.908;6.962;2022-10-26T01:34:33;3.78;;;1.00;;
44486;SDS011;30191;50.908;6.962;2022-10-26T01:37:09;3.60;;;1.00;;
44486;SDS011;30191;50.908;6.962;2022-10-26T01:42:05;4.57;;;1.55;;
44486;SDS011;30191;50.908;6.962;2022-10-26T01:44:36;4.53;;;1.10;;
44486;SDS011;30191;50.908;6.962;2022-10-26T01:47:14;4.10;;;1.17;;
44486;SDS011;30191;50.908;6.962;2022-10-26T01:49:42;2.28;;;0.80;;
44486;SDS011;30191;50.908;6.962;2022-10-26T01:52:11;6.15;;;1.25;;
44486;SDS011;30191;50.908;6.962;2022-10-26T01:54:37;3.25;;;1.02;;
44486;SDS011;30191;50.908;6.962;2022-10-26T01:57:03;4.25;;;0.90;;
44486;SDS011;30191;50.908;6.962;2022-10-26T02:08:26;3.75;;;0.90;;
44486;SDS011;30191;50.908;6.962;2022-10-26T02:11:21;5.70;;;1.10;;
44486;SDS011;30191;50.908;6.962;2022-10-26T02:13:54;2.45;;;0.85;;
44486;SDS011;30191;50.908;6.962;2022-10-26T02:16:29;2.58;;;0.95;;
44486;SDS011;30191;50.908;6.962;2022-10-26T02:19:07;5.78;;;1.13;;
44486;SDS011;30191;50.908;6.962;2022-10-26T02:21:42;2.50;;;1.00;;
44486;SDS011;30191;50.908;6.962;2022-10-26T02:24:12;4.57;;;1.17;;
44486;SDS011;30191;50.908;6.962;2022-10-26T02:26:40;3.80;;;0.90;;
44486;SDS011;30191;50.908;6.962;2022-10-26T02:29:11;6.53;;;1.10;;
44486;SDS011;30191;50.908;6.962;2022-10-26T02:31:40;4.28;;;0.80;;
44486;SDS011;30191;50.908;6.962;2022-10-26T02:34:08;6.47;;;0.88;;
44486;SDS011;30191;50.908;6.962;2022-10-26T02:36:38;3.90;;;0.70;;
44486;SDS011;30191;50.908;6.962;2022-10-26T02:41:35;4.40;;;1.08;;
44486;SDS011;30191;50.908;6.962;2022-10-26T02:44:25;3.22;;;1.02;;
44486;SDS011;30191;50.908;6.962;2022-10-26T02:46:53;2.63;;;0.93;;
44486;SDS011;30191;50.908;6.962;2022-10-26T02:49:21;5.65;;;1.10;;
44486;SDS011;30191;50.908;6.962;2022-10-26T02:51:48;3.92;;;0.80;;
44486;SDS011;30191;50.908;6.962;2022-10-26T02:54:31;7.47;;;1.20;;
44486;SDS011;30191;50.908;6.962;2022-10-26T02:59:37;6.35;;;1.00;;
44486;SDS011;30191;50.908;6.962;2022-10-26T03:02:06;5.60;;;1.20;;
44486;SDS011;30191;50.908;6.962;2022-10-26T03:04:31;5.45;;;0.90;;
44486;SDS011;30191;50.908;6.962;2022-10-26T03:06:58;3.75;;;0.90;;
44486;SDS011;30191;50.908;6.962;2022-10-26T03:09:24;1.65;;;0.80;;
44486;SDS011;30191;50.908;6.962;2022-10-26T03:11:50;4.65;;;1.00;;
44486;SDS011;30191;50.908;6.962;2022-10-26T03:14:16;5.35;;;1.45;;
44486;SDS011;30191;50.908;6.962;2022-10-26T03:16:42;4.78;;;1.00;;
44486;SDS011;30191;50.908;6.962;2022-10-26T03:19:07;7.93;;;1.40;;
44486;SDS011;30191;50.908;6.962;2022-10-26T03:21:33;4.65;;;0.93;;
44486;SDS011;30191;50.908;6.962;2022-10-26T03:23:59;4.32;;;1.40;;
44486;SDS011;30191;50.908;6.962;2022-10-26T03:26:24;6.88;;;1.33;;
44486;SDS011;30191;50.908;6.962;2022-10-26T03:28:50;4.03;;;1.05;;
44486;SDS011;30191;50.908;6.962;2022-10-26T03:31:16;4.18;;;1.10;;
44486;SDS011;30191;50.908;6.962;2022-10-26T03:33:41;4.97;;;1.20;;
44486;SDS011;30191;50.908;6.962;2022-10-26T03:36:07;3.30;;;1.10;;
44486;SDS011;30191;50.908;6.962;2022-10-26T03:38:33;3.78;;;1.02;;
44486;SDS011;30191;50.908;6.962;2022-10-26T03:40:59;5.05;;;1.20;;
44486;SDS011;30191;50.908;6.962;2022-10-26T03:43:25;7.60;;;1.40;;
44486;SDS011;30191;50.908;6.962;2022-10-26T03:45:51;6.78;;;1.10;;
44486;SDS011;30191;50.908;6.962;2022-10-26T03:48:16;2.50;;;0.88;;
44486;SDS011;30191;50.908;6.962;2022-10-26T03:50:42;3.03;;;1.08;;
44486;SDS011;30191;50.908;6.962;2022-10-26T03:53:08;3.40;;;1.20;;
44486;SDS011;30191;50.908;6.962;2022-10-26T03:55:34;5.85;;;1.60;;
44486;SDS011;30191;50.908;6.962;2022-10-26T03:58:00;4.00;;;1.27;;
44486;SDS011;30191;50.908;6.962;2022-10-26T04:00:26;7.03;;;1.20;;
44486;SDS011;30191;50.908;6.962;2022-10-26T04:02:52;3.15;;;1.10;;
44486;SDS011;30191;50.908;6.962;2022-10-26T04:05:24;4.43;;;1.00;;
44486;SDS011;30191;50.908;6.962;2022-10-26T04:07:58;4.57;;;1.20;;
44486;SDS011;30191;50.908;6.962;2022-10-26T04:10:26;4.53;;;1.08;;
44486;SDS011;30191;50.908;6.962;2022-10-26T04:12:53;3.85;;;1.00;;
44486;SDS011;30191;50.908;6.962;2022-10-26T04:15:19;5.15;;;0.90;;
44486;SDS011;30191;50.908;6.962;2022-10-26T04:17:46;4.53;;;0.95;;
44486;SDS011;30191;50.908;6.962;2022-10-26T04:20:12;4.25;;;1.25;;
44486;SDS011;30191;50.908;6.962;2022-10-26T04:22:38;5.93;;;1.20;;
44486;SDS011;30191;50.908;6.962;2022-10-26T04:25:04;3.78;;;1.02;;
44486;SDS011;30191;50.908;6.962;2022-10-26T04:27:31;11.57;;;1.20;;
44486;SDS011;30191;50.908;6.962;2022-10-26T04:29:56;5.63;;;1.20;;
44486;SDS011;30191;50.908;6.962;2022-10-26T04:32:22;3.28;;;1.17;;
44486;SDS011;30191;50.908;6.962;2022-10-26T04:34:48;8.77;;;1.30;;
44486;SDS011;30191;50.908;6.962;2022-10-26T04:37:13;5.72;;;1.00;;
44486;SDS011;30191;50.908;6.962;2022-10-26T04:39:39;5.85;;;1.30;;
44486;SDS011;30191;50.908;6.962;2022-10-26T04:42:05;3.53;;;1.27;;
44486;SDS011;30191;50.908;6.962;2022-10-26T04:44:31;4.10;;;0.93;;
44486;SDS011;30191;50.908;6.962;2022-10-26T04:46:57;5.15;;;1.10;;
44486;SDS011;30191;50.908;6.962;2022-10-26T04:49:22;3.97;;;1.08;;
44486;SDS011;30191;50.908;6.962;2022-10-26T04:51:48;4.88;;;1.45;;
44486;SDS011;30191;50.908;6.962;2022-10-26T04:54:13;4.60;;;1.02;;
44486;SDS011;30191;50.908;6.962;2022-10-26T04:56:39;6.10;;;1.35;;
44486;SDS011;30191;50.908;6.962;2022-10-26T04:59:05;5.32;;;1.10;;
44486;SDS011;30191;50.908;6.962;2022-10-26T05:01:30;3.78;;;1.30;;
44486;SDS011;30191;50.908;6.962;2022-10-26T05:03:56;7.53;;;1.63;;
44486;SDS011;30191;50.908;6.962;2022-10-26T05:06:22;5.03;;;1.27;;
44486;SDS011;30191;50.908;6.962;2022-10-26T05:08:48;7.00;;;1.17;;
44486;SDS011;30191;50.908;6.962;2022-10-26T05:11:13;5.63;;;1.10;;
44486;SDS011;30191;50.908;6.962;2022-10-26T05:13:39;4.78;;;1.10;;
44486;SDS011;30191;50.908;6.962;2022-10-26T05:16:05;3.92;;;1.10;;
44486;SDS011;30191;50.908;6.962;2022-10-26T05:18:31;7.75;;;1.30;;
44486;SDS011;30191;50.908;6.962;2022-10-26T05:20:57;5.05;;;1.13;;
44486;SDS011;30191;50.908;6.962;2022-10-26T05:23:23;9.18;;;1.90;;
44486;SDS011;30191;50.908;6.962;2022-10-26T05:25:49;6.43;;;1.40;;
44486;SDS011;30191;50.908;6.962;2022-10-26T05:28:15;8.10;;;1.67;;
44486;SDS011;30191;50.908;6.962;2022-10-26T05:30:42;5.40;;;1.33;;
44486;SDS011;30191;50.908;6.962;2022-10-26T05:33:09;6.40;;;1.15;;
44486;SDS011;30191;50.908;6.962;2022-10-26T05:35:36;2.60;;;1.33;;
44486;SDS011;30191;50.908;6.962;2022-10-26T05:38:05;3.42;;;1.48;;
44486;SDS011;30191;50.908;6.962;2022-10-26T05:40:32;4.72;;;1.17;;
44486;SDS011;30191;50.908;6.962;2022-10-26T05:42:58;4.68;;;1.25;;
44486;SDS011;30191;50.908;6.962;2022-10-26T05:45:26;4.80;;;0.90;;
44486;SDS011;30191;50.908;6.962;2022-10-26T05:47:52;6.05;;;1.27;;
44486;SDS011;30191;50.908;6.962;2022-10-26T05:50:17;4.78;;;1.20;;
44486;SDS011;30191;50.908;6.962;2022-10-26T05:52:46;10.00;;;1.27;;
44486;SDS011;30191;50.908;6.962;2022-10-26T05:55:15;8.82;;;1.40;;
44486;SDS011;30191;50.908;6.962;2022-10-26T05:57:42;5.10;;;1.10;;
44486;SDS011;30191;50.908;6.962;2022-10-26T06:00:09;4.93;;;1.30;;
44486;SDS011;30191;50.908;6.962;2022-10-26T06:05:12;2.22;;;1.05;;
44486;SDS011;30191;50.908;6.962;2022-10-26T06:07:46;5.30;;;1.10;;
44486;SDS011;30191;50.908;6.962;2022-10-26T06:10:12;6.82;;;1.42;;
44486;SDS011;30191;50.908;6.962;2022-10-26T06:12:38;8.15;;;1.30;;
44486;SDS011;30191;50.908;6.962;2022-10-26T06:15:04;5.28;;;1.83;;
44486;SDS011;30191;50.908;6.962;2022-10-26T06:25:50;3.33;;;1.15;;
44486;SDS011;30191;50.908;6.962;2022-10-26T06:28:29;8.38;;;2.28;;
44486;SDS011;30191;50.908;6.962;2022-10-26T06:30:58;4.68;;;1.42;;
44486;SDS011;30191;50.908;6.962;2022-10-26T06:33:24;6.50;;;1.25;;
44486;SDS011;30191;50.908;6.962;2022-10-26T06:38:19;4.28;;;1.52;;
44486;SDS011;30191;50.908;6.962;2022-10-26T06:40:48;5.40;;;1.70;;
44486;SDS011;30191;50.908;6.962;2022-10-26T06:43:22;4.63;;;1.23;;
44486;SDS011;30191;50.908;6.962;2022-10-26T06:48:42;4.27;;;1.53;;
44486;SDS011;30191;50.908;6.962;2022-10-26T06:51:22;4.10;;;1.27;;
44486;SDS011;30191;50.908;6.962;2022-10-26T06:53:50;6.50;;;1.33;;
44486;SDS011;30191;50.908;6.962;2022-10-26T06:56:19;3.65;;;1.40;;
44486;SDS011;30191;50.908;6.962;2022-10-26T06:58:45;6.50;;;1.52;;
44486;SDS011;30191;50.908;6.962;2022-10-26T07:01:13;8.38;;;1.30;;
44486;SDS011;30191;50.908;6.962;2022-10-26T07:03:39;6.40;;;1.50;;
44486;SDS011;30191;50.908;6.962;2022-10-26T07:06:05;6.07;;;1.58;;
44486;SDS011;30191;50.908;6.962;2022-10-26T07:08:31;8.18;;;1.80;;
44486;SDS011;30191;50.908;6.962;2022-10-26T07:10:56;6.40;;;1.73;;
44486;SDS011;30191;50.908;6.962;2022-10-26T07:13:22;2.75;;;1.60;;
44486;SDS011;30191;50.908;6.962;2022-10-26T07:15:48;6.63;;;1.65;;
44486;SDS011;30191;50.908;6.962;2022-10-26T07:18:13;4.45;;;1.60;;
44486;SDS011;30191;50.908;6.962;2022-10-26T07:20:39;5.32;;;1.58;;
44486;SDS011;30191;50.908;6.962;2022-10-26T07:23:06;7.25;;;1.77;;
44486;SDS011;30191;50.908;6.962;2022-10-26T07:25:34;4.43;;;1.40;;
44486;SDS011;30191;50.908;6.962;2022-10-26T07:28:03;6.13;;;1.65;;
44486;SDS011;30191;50.908;6.962;2022-10-26T07:30:29;4.53;;;1.38;;
44486;SDS011;30191;50.908;6.962;2022-10-26T07:32:58;4.97;;;1.75;;
44486;SDS011;30191;50.908;6.962;2022-10-26T07:35:28;5.28;;;2.42;;
44486;SDS011;30191;50.908;6.962;2022-10-26T07:37:57;7.07;;;2.00;;
44486;SDS011;30191;50.908;6.962;2022-10-26T07:40:23;3.78;;;2.08;;
44486;SDS011;30191;50.908;6.962;2022-10-26T07:42:49;5.70;;;1.70;;
44486;SDS011;30191;50.908;6.962;2022-10-26T07:45:15;3.33;;;1.70;;
44486;SDS011;30191;50.908;6.962;2022-10-26T07:47:41;4.55;;;2.10;;
44486;SDS011;30191;50.908;6.962;2022-10-26T07:50:06;5.00;;;2.20;;
44486;SDS011;30191;50.908;6.962;2022-10-26T07:52:33;6.18;;;1.65;;
44486;SDS011;30191;50.908;6.962;2022-10-26T07:55:00;4.93;;;2.00;;
44486;SDS011;30191;50.908;6.962;2022-10-26T07:57:26;7.75;;;2.08;;
44486;SDS011;30191;50.908;6.962;2022-10-26T07:59:52;8.50;;;3.45;;
44486;SDS011;30191;50.908;6.962;2022-10-26T08:02:17;9.35;;;2.45;;
44486;SDS011;30191;50.908;6.962;2022-10-26T08:04:43;7.15;;;1.88;;
44486;SDS011;30191;50.908;6.962;2022-10-26T08:07:09;6.72;;;1.65;;
44486;SDS011;30191;50.908;6.962;2022-10-26T08:09:35;5.22;;;1.98;;
44486;SDS011;30191;50.908;6.962;2022-10-26T08:12:00;4.82;;;1.88;;
44486;SDS011;30191;50.908;6.962;2022-10-26T08:14:26;6.45;;;1.95;;
44486;SDS011;30191;50.908;6.962;2022-10-26T08:16:51;4.03;;;1.80;;
44486;SDS011;30191;50.908;6.962;2022-10-26T08:19:17;7.80;;;1.80;;
44486;SDS011;30191;50.908;6.962;2022-10-26T08:21:43;4.90;;;1.73;;
44486;SDS011;30191;50.908;6.962;2022-10-26T08:24:09;6.40;;;1.67;;
44486;SDS011;30191;50.908;6.962;2022-10-26T08:26:35;4.82;;;1.90;;
44486;SDS011;30191;50.908;6.962;2022-10-26T08:29:01;5.25;;;1.60;;
44486;SDS011;30191;50.908;6.962;2022-10-26T08:31:26;9.18;;;3.75;;
44486;SDS011;30191;50.908;6.962;2022-10-26T08:33:52;6.57;;;2.05;;
44486;SDS011;30191;50.908;6.962;2022-10-26T08:36:19;8.32;;;2.58;;
44486;SDS011;30191;50.908;6.962;2022-10-26T08:38:48;6.85;;;2.00;;
44486;SDS011;30191;50.908;6.962;2022-10-26T08:41:13;8.52;;;1.95;;
44486;SDS011;30191;50.908;6.962;2022-10-26T08:43:40;5.05;;;1.90;;
44486;SDS011;30191;50.908;6.962;2022-10-26T08:46:24;4.68;;;1.88;;
44486;SDS011;30191;50.908;6.962;2022-10-26T08:48:58;5.07;;;1.75;;
44486;SDS011;30191;50.908;6.962;2022-10-26T08:51:28;5.53;;;1.58;;
44486;SDS011;30191;50.908;6.962;2022-10-26T08:54:05;4.88;;;1.58;;
44486;SDS011;30191;50.908;6.962;2022-10-26T08:56:42;7.80;;;1.90;;
44486;SDS011;30191;50.908;6.962;2022-10-26T08:59:16;6.72;;;1.83;;
44486;SDS011;30191;50.908;6.962;2022-10-26T09:01:58;5.57;;;1.38;;
44486;SDS011;30191;50.908;6.962;2022-10-26T09:04:26;6.80;;;1.58;;
44486;SDS011;30191;50.908;6.962;2022-10-26T09:09:51;6.72;;;1.48;;
44486;SDS011;30191;50.908;6.962;2022-10-26T09:12:45;5.25;;;1.42;;
44486;SDS011;30191;50.908;6.962;2022-10-26T09:23:39;7.15;;;1.65;;
44486;SDS011;30191;50.908;6.962;2022-10-26T09:26:13;7.45;;;1.50;;
44486;SDS011;30191;50.908;6.962;2022-10-26T09:28:40;7.13;;;1.88;;
44486;SDS011;30191;50.908;6.962;2022-10-26T09:31:10;5.10;;;1.75;;
44486;SDS011;30191;50.908;6.962;2022-10-26T09:33:40;7.88;;;1.92;;
44486;SDS011;30191;50.908;6.962;2022-10-26T09:36:07;4.22;;;1.75;;
44486;SDS011;30191;50.908;6.962;2022-10-26T09:38:43;7.15;;;1.70;;
44486;SDS011;30191;50.908;6.962;2022-10-26T09:41:34;4.63;;;1.55;;
44486;SDS011;30191;50.908;6.962;2022-10-26T09:49:51;5.70;;;1.58;;
44486;SDS011;30191;50.908;6.962;2022-10-26T09:52:20;7.90;;;2.03;;
44486;SDS011;30191;50.908;6.962;2022-10-26T09:54:46;5.13;;;1.50;;
44486;SDS011;30191;50.908;6.962;2022-10-26T09:57:12;4.63;;;1.73;;
44486;SDS011;30191;50.908;6.962;2022-10-26T09:59:40;8.73;;;1.83;;
44486;SDS011;30191;50.908;6.962;2022-10-26T10:05:19;6.03;;;2.13;;
44486;SDS011;30191;50.908;6.962;2022-10-26T10:10:55;3.67;;;1.58;;
44486;SDS011;30191;50.908;6.962;2022-10-26T10:13:21;5.90;;;1.92;;
44486;SDS011;30191;50.908;6.962;2022-10-26T10:16:22;5.82;;;1.95;;
44486;SDS011;30191;50.908;6.962;2022-10-26T10:18:43;8.00;;;1.92;;
44486;SDS011;30191;50.908;6.962;2022-10-26T10:21:35;5.18;;;1.95;;
44486;SDS011;30191;50.908;6.962;2022-10-26T10:24:29;4.20;;;2.05;;
44486;SDS011;30191;50.908;6.962;2022-10-26T10:27:14;5.78;;;1.85;;
44486;SDS011;30191;50.908;6.962;2022-10-26T10:32:25;5.45;;;1.90;;
44486;SDS011;30191;50.908;6.962;2022-10-26T10:34:55;7.10;;;1.95;;
44486;SDS011;30191;50.908;6.962;2022-10-26T10:39:59;3.28;;;1.80;;
44486;SDS011;30191;50.908;6.962;2022-10-26T10:42:31;3.95;;;1.67;;
44486;SDS011;30191;50.908;6.962;2022-10-26T10:44:59;6.72;;;2.00;;
44486;SDS011;30191;50.908;6.962;2022-10-26T10:47:30;6.45;;;1.90;;
44486;SDS011;30191;50.908;6.962;2022-10-26T10:52:32;8.18;;;1.88;;
44486;SDS011;30191;50.908;6.962;2022-10-26T10:57:59;6.40;;;1.60;;
44486;SDS011;30191;50.908;6.962;2022-10-26T11:00:38;10.27;;;2.00;;
44486;SDS011;30191;50.908;6.962;2022-10-26T11:03:14;4.25;;;1.85;;
44486;SDS011;30191;50.908;6.962;2022-10-26T11:08:56;6.60;;;2.00;;
44486;SDS011;30191;50.908;6.962;2022-10-26T11:11:34;6.32;;;2.17;;
44486;SDS011;30191;50.908;6.962;2022-10-26T11:16:39;5.97;;;2.00;;
44486;SDS011;30191;50.908;6.962;2022-10-26T11:21:55;7.18;;;2.00;;
44486;SDS011;30191;50.908;6.962;2022-10-26T11:26:51;8.82;;;2.28;;
44486;SDS011;30191;50.908;6.962;2022-10-26T11:32:02;2.25;;;0.60;;
44486;SDS011;30191;50.908;6.962;2022-10-26T11:35:04;2.50;;;0.70;;
44486;SDS011;30191;50.908;6.962;2022-10-26T11:40:01;1.50;;;0.55;;
44486;SDS011;30191;50.908;6.962;2022-10-26T11:47:59;3.00;;;0.80;;
44486;SDS011;30191;50.908;6.962;2022-10-26T11:50:48;3.28;;;0.70;;
44486;SDS011;30191;50.908;6.962;2022-10-26T11:53:18;3.58;;;0.70;;
44486;SDS011;30191;50.908;6.962;2022-10-26T11:55:51;1.35;;;0.50;;
44486;SDS011;30191;50.908;6.962;2022-10-26T11:58:22;2.33;;;0.70;;
44486;SDS011;30191;50.908;6.962;2022-10-26T12:00:50;2.45;;;0.70;;
44486;SDS011;30191;50.908;6.962;2022-10-26T12:03:32;1.08;;;0.50;;
44486;SDS011;30191;50.908;6.962;2022-10-26T12:06:02;1.08;;;0.57;;
44486;SDS011;30191;50.908;6.962;2022-10-26T12:08:29;2.50;;;0.60;;
44486;SDS011;30191;50.908;6.962;2022-10-26T12:11:11;6.68;;;0.70;;
44486;SDS011;30191;50.908;6.962;2022-10-26T12:13:53;4.15;;;0.50;;
44486;SDS011;30191;50.908;6.962;2022-10-26T12:16:32;1.77;;;0.50;;
44486;SDS011;30191;50.908;6.962;2022-10-26T12:22:13;3.25;;;0.52;;
44486;SDS011;30191;50.908;6.962;2022-10-26T12:24:42;1.30;;;0.60;;
44486;SDS011;30191;50.908;6.962;2022-10-26T12:27:33;2.50;;;0.70;;
44486;SDS011;30191;50.908;6.962;2022-10-26T12:40:48;0.88;;;0.45;;
44486;SDS011;30191;50.908;6.962;2022-10-26T12:56:50;2.65;;;0.40;;
44486;SDS011;30191;50.908;6.962;2022-10-26T13:07:35;2.00;;;0.52;;
44486;SDS011;30191;50.908;6.962;2022-10-26T13:12:44;3.70;;;0.50;;
44486;SDS011;30191;50.908;6.962;2022-10-26T13:17:58;2.05;;;0.30;;
44486;SDS011;30191;50.908;6.962;2022-10-26T13:20:24;2.05;;;0.43;;
44486;SDS011;30191;50.908;6.962;2022-10-26T13:22:50;1.30;;;0.40;;
44486;SDS011;30191;50.908;6.962;2022-10-26T13:25:23;2.45;;;0.40;;
44486;SDS011;30191;50.908;6.962;2022-10-26T13:32:58;2.83;;;0.40;;
44486;SDS011;30191;50.908;6.962;2022-10-26T13:35:25;2.97;;;0.50;;
44486;SDS011;30191;50.908;6.962;2022-10-26T13:37:52;1.70;;;0.40;;
44486;SDS011;30191;50.908;6.962;2022-10-26T13:40:20;3.67;;;0.47;;
44486;SDS011;30191;50.908;6.962;2022-10-26T13:42:54;1.63;;;0.40;;
44486;SDS011;30191;50.908;6.962;2022-10-26T13:45:29;3.60;;;0.47;;
44486;SDS011;30191;50.908;6.962;2022-10-26T13:48:05;3.05;;;0.50;;
44486;SDS011;30191;50.908;6.962;2022-10-26T13:50:50;1.10;;;0.50;;
44486;SDS011;30191;50.908;6.962;2022-10-26T13:53:27;2.80;;;0.60;;
44486;SDS011;30191;50.908;6.962;2022-10-26T13:58:46;2.03;;;0.50;;
44486;SDS011;30191;50.908;6.962;2022-10-26T14:01:16;0.55;;;0.32;;
44486;SDS011;30191;50.908;6.962;2022-10-26T14:03:45;3.38;;;0.32;;
44486;SDS011;30191;50.908;6.962;2022-10-26T14:06:14;2.25;;;0.40;;
44486;SDS011;30191;50.908;6.962;2022-10-26T14:08:41;2.25;;;0.50;;
44486;SDS011;30191;50.908;6.962;2022-10-26T14:11:11;0.95;;;0.40;;
44486;SDS011;30191;50.908;6.962;2022-10-26T14:13:40;2.03;;;0.30;;
44486;SDS011;30191;50.908;6.962;2022-10-26T14:16:06;3.83;;;0.60;;
44486;SDS011;30191;50.908;6.962;2022-10-26T14:18:34;2.08;;;0.40;;
44486;SDS011;30191;50.908;6.962;2022-10-26T14:21:03;1.70;;;0.55;;
44486;SDS011;30191;50.908;6.962;2022-10-26T14:23:35;2.45;;;0.70;;
44486;SDS011;30191;50.908;6.962;2022-10-26T14:28:31;1.67;;;0.52;;
44486;SDS011;30191;50.908;6.962;2022-10-26T14:31:09;2.88;;;0.50;;
44486;SDS011;30191;50.908;6.962;2022-10-26T14:33:45;1.25;;;0.40;;
44486;SDS011;30191;50.908;6.962;2022-10-26T14:36:10;3.17;;;0.60;;
44486;SDS011;30191;50.908;6.962;2022-10-26T14:38:41;2.95;;;0.50;;
44486;SDS011;30191;50.908;6.962;2022-10-26T14:41:14;2.13;;;0.52;;
44486;SDS011;30191;50.908;6.962;2022-10-26T14:43:41;3.40;;;0.50;;
44486;SDS011;30191;50.908;6.962;2022-10-26T14:46:15;4.30;;;0.50;;
44486;SDS011;30191;50.908;6.962;2022-10-26T14:51:19;2.30;;;0.60;;
44486;SDS011;30191;50.908;6.962;2022-10-26T14:53:50;1.50;;;0.50;;
44486;SDS011;30191;50.908;6.962;2022-10-26T14:56:24;2.25;;;0.60;;
44486;SDS011;30191;50.908;6.962;2022-10-26T14:59:08;2.08;;;0.60;;
44486;SDS011;30191;50.908;6.962;2022-10-26T15:06:59;1.45;;;0.60;;
44486;SDS011;30191;50.908;6.962;2022-10-26T15:09:36;3.05;;;0.50;;
44486;SDS011;30191;50.908;6.962;2022-10-26T15:14:59;3.50;;;0.80;;
44486;SDS011;30191;50.908;6.962;2022-10-26T15:17:42;2.03;;;0.50;;
44486;SDS011;30191;50.908;6.962;2022-10-26T15:20:20;1.70;;;0.73;;
44486;SDS011;30191;50.908;6.962;2022-10-26T15:22:50;4.05;;;0.60;;
44486;SDS011;30191;50.908;6.962;2022-10-26T15:25:22;2.97;;;1.00;;
44486;SDS011;30191;50.908;6.962;2022-10-26T15:27:51;1.92;;;0.50;;
44486;SDS011;30191;50.908;6.962;2022-10-26T15:30:18;2.65;;;0.50;;
44486;SDS011;30191;50.908;6.962;2022-10-26T15:32:49;1.42;;;0.60;;
44486;SDS011;30191;50.908;6.962;2022-10-26T15:37:48;2.33;;;0.90;;
44486;SDS011;30191;50.908;6.962;2022-10-26T15:40:15;2.10;;;1.08;;
44486;SDS011;30191;50.908;6.962;2022-10-26T15:42:41;4.72;;;1.00;;
44486;SDS011;30191;50.908;6.962;2022-10-26T15:45:14;2.05;;;0.75;;
44486;SDS011;30191;50.908;6.962;2022-10-26T15:47:45;1.42;;;0.70;;
44486;SDS011;30191;50.908;6.962;2022-10-26T15:50:16;2.13;;;0.80;;
44486;SDS011;30191;50.908;6.962;2022-10-26T15:52:43;4.10;;;1.13;;
44486;SDS011;30191;50.908;6.962;2022-10-26T15:55:09;2.00;;;0.70;;
44486;SDS011;30191;50.908;6.962;2022-10-26T15:57:35;3.35;;;0.90;;
44486;SDS011;30191;50.908;6.962;2022-10-26T16:00:02;5.45;;;0.90;;
44486;SDS011;30191;50.908;6.962;2022-10-26T16:02:29;3.08;;;0.80;;
44486;SDS011;30191;50.908;6.962;2022-10-26T16:04:55;3.28;;;1.60;;
44486;SDS011;30191;50.908;6.962;2022-10-26T16:07:20;3.92;;;1.73;;
44486;SDS011;30191;50.908;6.962;2022-10-26T16:09:50;3.63;;;1.08;;
44486;SDS011;30191;50.908;6.962;2022-10-26T16:12:16;5.50;;;1.50;;
44486;SDS011;30191;50.908;6.962;2022-10-26T16:14:41;3.80;;;1.35;;
44486;SDS011;30191;50.908;6.962;2022-10-26T16:17:09;4.65;;;1.83;;
44486;SDS011;30191;50.908;6.962;2022-10-26T16:19:41;7.63;;;1.95;;
44486;SDS011;30191;50.908;6.962;2022-10-26T16:22:07;4.55;;;1.98;;
44486;SDS011;30191;50.908;6.962;2022-10-26T16:24:33;5.80;;;1.90;;
44486;SDS011;30191;50.908;6.962;2022-10-26T16:26:59;4.47;;;2.00;;
44486;SDS011;30191;50.908;6.962;2022-10-26T16:29:25;3.33;;;1.92;;
44486;SDS011;30191;50.908;6.962;2022-10-26T16:31:51;3.33;;;1.30;;
44486;SDS011;30191;50.908;6.962;2022-10-26T16:34:16;1.75;;;0.90;;
44486;SDS011;30191;50.908;6.962;2022-10-26T16:36:42;3.63;;;1.00;;
44486;SDS011;30191;50.908;6.962;2022-10-26T16:39:09;2.00;;;1.15;;
44486;SDS011;30191;50.908;6.962;2022-10-26T16:41:36;2.83;;;1.40;;
44486;SDS011;30191;50.908;6.962;2022-10-26T16:44:02;5.60;;;1.63;;
44486;SDS011;30191;50.908;6.962;2022-10-26T16:46:27;5.55;;;3.25;;
44486;SDS011;30191;50.908;6.962;2022-10-26T16:48:53;6.95;;;1.90;;
44486;SDS011;30191;50.908;6.962;2022-10-26T16:51:23;4.60;;;1.35;;
44486;SDS011;30191;50.908;6.962;2022-10-26T16:53:53;2.95;;;1.35;;
44486;SDS011;30191;50.908;6.962;2022-10-26T16:56:21;3.25;;;1.13;;
44486;SDS011;30191;50.908;6.962;2022-10-26T16:58:51;4.53;;;1.10;;
44486;SDS011;30191;50.908;6.962;2022-10-26T17:01:18;3.28;;;0.98;;
44486;SDS011;30191;50.908;6.962;2022-10-26T17:03:45;3.47;;;1.30;;
44486;SDS011;30191;50.908;6.962;2022-10-26T17:06:12;3.67;;;1.75;;
44486;SDS011;30191;50.908;6.962;2022-10-26T17:08:38;4.43;;;1.60;;
44486;SDS011;30191;50.908;6.962;2022-10-26T17:11:06;5.30;;;2.03;;
44486;SDS011;30191;50.908;6.962;2022-10-26T17:13:34;2.95;;;1.75;;
44486;SDS011;30191;50.908;6.962;2022-10-26T17:16:01;6.00;;;1.50;;
44486;SDS011;30191;50.908;6.962;2022-10-26T17:18:27;2.40;;;1.35;;
44486;SDS011;30191;50.908;6.962;2022-10-26T17:20:53;5.63;;;1.48;;
44486;SDS011;30191;50.908;6.962;2022-10-26T17:23:19;4.38;;;1.08;;
44486;SDS011;30191;50.908;6.962;2022-10-26T17:25:44;5.47;;;1.17;;
44486;SDS011;30191;50.908;6.962;2022-10-26T17:28:10;5.00;;;0.90;;
44486;SDS011;30191;50.908;6.962;2022-10-26T17:30:37;3.35;;;1.50;;
44486;SDS011;30191;50.908;6.962;2022-10-26T17:33:03;3.92;;;1.30;;
44486;SDS011;30191;50.908;6.962;2022-10-26T17:35:29;4.03;;;1.05;;
44486;SDS011;30191;50.908;6.962;2022-10-26T17:37:56;2.72;;;1.15;;
44486;SDS011;30191;50.908;6.962;2022-10-26T17:40:22;3.22;;;1.05;;
44486;SDS011;30191;50.908;6.962;2022-10-26T17:42:48;2.33;;;1.42;;